createdAt,value
2022-09-28T00:01:21.158Z,89
2022-09-28T00:04:46.402Z,89
2022-09-28T00:08:11.778Z,89
2022-09-28T00:11:37.214Z,89
2022-09-28T00:15:02.566Z,89
2022-09-28T00:18:27.913Z,89
2022-09-28T00:21:53.317Z,88
2022-09-28T00:25:18.659Z,88
2022-09-28T00:28:44.091Z,89
2022-09-28T00:32:09.459Z,88
2022-09-28T00:35:34.791Z,89
2022-09-28T00:39:00.187Z,88
2022-09-28T00:42:25.559Z,88
2022-09-28T00:45:50.990Z,89
2022-09-28T00:49:16.311Z,89
2022-09-28T00:52:41.743Z,89
2022-09-28T00:56:07.109Z,89
2022-09-28T00:59:32.545Z,88
2022-09-28T01:02:57.944Z,88
2022-09-28T01:06:23.280Z,87
2022-09-28T01:09:48.620Z,88
2022-09-28T01:13:14.003Z,88
2022-09-28T01:16:39.423Z,88
2022-09-28T01:20:04.773Z,88
2022-09-28T01:23:30.136Z,87
2022-09-28T01:26:55.535Z,87
2022-09-28T01:30:20.921Z,87
2022-09-28T01:33:46.273Z,87
2022-09-28T01:37:11.689Z,87
2022-09-28T01:40:37.064Z,88
2022-09-28T01:44:02.390Z,88
2022-09-28T01:47:27.772Z,87
2022-09-28T01:50:53.153Z,88
2022-09-28T01:54:18.580Z,87
2022-09-28T01:57:43.906Z,87
2022-09-28T02:01:09.336Z,87
2022-09-28T02:04:34.691Z,87
2022-09-28T02:08:00.066Z,87
2022-09-28T02:11:25.483Z,88
2022-09-28T02:14:50.833Z,88
2022-09-28T02:18:16.173Z,87
2022-09-28T02:21:41.541Z,87
2022-09-28T02:25:06.941Z,88
2022-09-28T02:28:32.377Z,88
2022-09-28T02:31:57.809Z,88
2022-09-28T02:35:23.095Z,88
2022-09-28T02:38:48.482Z,87
2022-09-28T02:42:13.880Z,87
2022-09-28T02:45:39.294Z,87
2022-09-28T02:49:20.698Z,87
2022-09-28T02:52:30.012Z,88
2022-09-28T02:55:55.369Z,89
2022-09-28T02:59:20.756Z,89
2022-09-28T03:02:46.176Z,89
2022-09-28T03:06:11.578Z,89
2022-09-28T03:09:36.943Z,89
2022-09-28T03:13:02.325Z,89
2022-09-28T03:16:27.774Z,89
2022-09-28T03:19:53.098Z,89
2022-09-28T03:23:25.653Z,89
2022-09-28T03:26:43.752Z,89
2022-09-28T03:30:09.157Z,89
2022-09-28T03:33:34.516Z,89
2022-09-28T03:36:59.904Z,89
2022-09-28T03:40:25.306Z,89
2022-09-28T03:43:50.657Z,89
2022-09-28T03:47:16.053Z,89
2022-09-28T03:50:41.441Z,89
2022-09-28T03:54:06.861Z,89
2022-09-28T03:57:32.194Z,89
2022-09-28T04:00:57.612Z,88
2022-09-28T04:04:22.939Z,89
2022-09-28T04:07:48.335Z,89
2022-09-28T04:11:13.754Z,89
2022-09-28T04:14:39.106Z,89
2022-09-28T04:18:04.479Z,89
2022-09-28T04:21:29.863Z,88
2022-09-28T04:24:55.236Z,89
2022-09-28T04:28:20.666Z,89
2022-09-28T04:31:46.125Z,89
2022-09-28T04:35:11.515Z,88
2022-09-28T04:38:52.152Z,89
2022-09-28T04:42:02.291Z,88
2022-09-28T04:45:27.783Z,88
2022-09-28T04:48:53.071Z,88
2022-09-28T04:52:18.845Z,89
2022-09-28T04:55:43.838Z,88
2022-09-28T04:59:09.206Z,88
2022-09-28T05:02:34.696Z,89
2022-09-28T05:05:59.971Z,88
2022-09-28T05:09:25.383Z,88
2022-09-28T05:12:50.781Z,88
2022-09-28T05:16:16.370Z,88
2022-09-28T05:19:41.590Z,88
2022-09-28T05:23:06.952Z,88
2022-09-28T05:26:32.405Z,88
2022-09-28T05:29:57.821Z,88
2022-09-28T05:33:23.211Z,88
2022-09-28T05:36:48.601Z,88
2022-09-28T05:40:13.982Z,88
2022-09-28T05:43:39.364Z,88
2022-09-28T05:47:04.761Z,88
2022-09-28T05:50:30.120Z,88
2022-09-28T05:53:55.519Z,88
2022-09-28T05:57:20.951Z,88
2022-09-28T06:00:46.360Z,88
2022-09-28T06:04:11.706Z,88
2022-09-28T06:07:37.122Z,88
2022-09-28T06:11:02.479Z,88
2022-09-28T06:14:27.842Z,89
2022-09-28T06:17:53.229Z,88
2022-09-28T06:21:18.584Z,89
2022-09-28T06:24:43.916Z,88
2022-09-28T06:28:09.382Z,88
2022-09-28T06:31:34.726Z,88
2022-09-28T06:35:00.102Z,89
2022-09-28T06:38:25.478Z,88
2022-09-28T06:41:50.845Z,89
2022-09-28T06:45:16.224Z,90
2022-09-28T06:48:41.601Z,89
2022-09-28T06:52:06.970Z,89
2022-09-28T06:55:32.349Z,90
2022-09-28T06:58:57.735Z,90
2022-09-28T07:02:23.219Z,90
2022-09-28T07:05:48.509Z,90
2022-09-28T07:09:29.094Z,90
2022-09-28T07:12:39.260Z,90
2022-09-28T07:16:04.623Z,91
2022-09-28T07:19:30.034Z,91
2022-09-28T07:22:55.556Z,91
2022-09-28T07:26:23.418Z,91
2022-09-28T07:29:46.151Z,91
2022-09-28T07:33:11.526Z,91
2022-09-28T07:36:36.928Z,91
2022-09-28T07:40:02.294Z,91
2022-09-28T07:43:27.696Z,91
2022-09-28T07:46:53.066Z,91
2022-09-28T07:50:18.472Z,91
2022-09-28T07:53:43.857Z,90
2022-09-28T07:57:09.227Z,91
2022-09-28T08:00:34.605Z,92
2022-09-28T08:03:59.961Z,92
2022-09-28T08:07:25.354Z,92
2022-09-28T08:10:50.816Z,92
2022-09-28T08:14:16.169Z,92
2022-09-28T08:17:41.564Z,92
2022-09-28T08:21:06.930Z,91
2022-09-28T08:24:32.378Z,91
2022-09-28T08:27:57.776Z,88
2022-09-28T08:31:23.190Z,89
2022-09-28T08:34:48.525Z,88
2022-09-28T08:38:13.914Z,88
2022-09-28T08:41:39.334Z,88
2022-09-28T08:45:04.751Z,89
2022-09-28T08:48:30.102Z,91
2022-09-28T08:51:55.503Z,89
2022-09-28T08:55:20.883Z,87
2022-09-28T08:58:46.431Z,89
2022-09-28T09:02:11.876Z,88
2022-09-28T09:05:37.201Z,89
2022-09-28T09:09:02.562Z,88
2022-09-28T09:12:27.967Z,88
2022-09-28T09:15:53.343Z,87
2022-09-28T09:19:18.739Z,86
2022-09-28T09:22:44.109Z,85
2022-09-28T09:26:09.540Z,86
2022-09-28T09:29:34.943Z,85
2022-09-28T09:33:00.322Z,86
2022-09-28T09:36:25.842Z,87
2022-09-28T09:39:51.215Z,87
2022-09-28T09:43:16.568Z,86
2022-09-28T09:46:42.003Z,86
2022-09-28T09:50:08.488Z,87
2022-09-28T09:53:36.129Z,85
2022-09-28T09:56:58.207Z,87
2022-09-28T10:00:23.586Z,84
2022-09-28T10:03:48.961Z,85
2022-09-28T10:07:14.353Z,85
2022-09-28T10:10:39.791Z,85
2022-09-28T10:14:05.144Z,84
2022-09-28T10:17:46.065Z,83
2022-09-28T10:21:11.470Z,81
2022-09-28T10:24:36.832Z,83
2022-09-28T10:28:02.204Z,85
2022-09-28T10:31:27.584Z,87
2022-09-28T10:34:52.976Z,88
2022-09-28T10:38:18.362Z,87
2022-09-28T10:41:43.764Z,86
2022-09-28T10:45:09.149Z,86
2022-09-28T10:48:34.556Z,86
2022-09-28T10:51:59.909Z,84
2022-09-28T10:55:25.323Z,84
2022-09-28T10:58:50.715Z,80
2022-09-28T11:02:16.186Z,81
2022-09-28T11:05:41.531Z,81
2022-09-28T11:09:06.894Z,81
2022-09-28T11:12:32.288Z,78
2022-09-28T11:15:57.667Z,78
2022-09-28T11:19:23.031Z,79
2022-09-28T11:22:51.025Z,79
2022-09-28T11:26:17.596Z,78
2022-09-28T11:29:39.182Z,78
2022-09-28T11:33:04.557Z,78
2022-09-28T11:36:29.973Z,73
2022-09-28T11:39:55.369Z,78
2022-09-28T11:43:20.727Z,74
2022-09-28T11:46:46.086Z,74
2022-09-28T11:50:11.455Z,76
2022-09-28T11:53:36.887Z,79
2022-09-28T11:57:02.304Z,80
2022-09-28T12:00:27.704Z,81
2022-09-28T12:03:53.209Z,83
2022-09-28T12:07:18.494Z,84
2022-09-28T12:10:45.609Z,85
2022-09-28T12:14:09.267Z,81
2022-09-28T12:17:34.726Z,82
2022-09-28T12:21:03.038Z,82
2022-09-28T12:24:25.388Z,81
2022-09-28T12:27:50.871Z,81
2022-09-28T12:31:16.239Z,78
2022-09-28T12:34:41.579Z,79
2022-09-28T12:38:06.959Z,80
2022-09-28T12:41:32.413Z,79
2022-09-28T12:44:59.556Z,78
2022-09-28T12:48:23.313Z,75
2022-09-28T12:51:48.833Z,76
2022-09-28T12:55:14.561Z,77
2022-09-28T12:58:40.058Z,76
2022-09-28T13:02:05.667Z,75
2022-09-28T13:05:31.018Z,74
2022-09-28T13:08:56.513Z,77
2022-09-28T13:12:21.991Z,79
2022-09-28T13:15:47.469Z,77
2022-09-28T13:19:12.943Z,76
2022-09-28T13:22:42.229Z,75
2022-09-28T13:26:03.953Z,76
2022-09-28T13:29:29.402Z,77
2022-09-28T13:32:54.840Z,78
2022-09-28T13:36:20.369Z,77
2022-09-28T13:39:45.834Z,77
2022-09-28T13:43:11.325Z,79
2022-09-28T13:46:36.851Z,80
2022-09-28T13:50:02.364Z,81
2022-09-28T13:53:27.879Z,79
2022-09-28T13:56:53.423Z,80
2022-09-28T14:00:19.000Z,78
2022-09-28T14:03:44.529Z,78
2022-09-28T14:07:10.093Z,80
2022-09-28T14:10:35.633Z,80
2022-09-28T14:14:09.064Z,80
2022-09-28T14:17:34.613Z,78
2022-09-28T14:21:13.854Z,75
2022-09-28T14:24:51.836Z,74
2022-09-28T14:28:17.340Z,77
2022-09-28T15:05:01.361Z,78
2022-09-28T15:08:26.558Z,76
2022-09-28T15:11:51.861Z,76
2022-09-28T15:15:17.215Z,77
2022-09-28T15:18:42.572Z,76
2022-09-28T15:22:07.970Z,76
2022-09-28T15:25:33.240Z,76
2022-09-28T15:28:58.571Z,77
2022-09-28T15:32:23.832Z,77
2022-09-28T15:35:49.720Z,78
2022-09-28T15:39:15.075Z,77
2022-09-28T15:42:40.421Z,77
2022-09-28T15:46:05.806Z,78
2022-09-28T15:49:32.139Z,80
2022-09-28T15:52:56.529Z,81
2022-09-28T15:56:21.930Z,81
2022-09-28T15:59:47.277Z,84
2022-09-28T16:03:12.586Z,83
2022-09-28T16:06:37.970Z,84
2022-09-28T16:10:03.369Z,86
2022-09-28T16:13:29.291Z,86
2022-09-28T16:16:54.665Z,85
2022-09-28T16:20:20.298Z,85
2022-09-28T16:23:45.704Z,84
2022-09-28T16:27:11.114Z,84
2022-09-28T16:30:36.545Z,83
2022-09-28T16:34:01.978Z,83
2022-09-28T16:37:27.435Z,83
2022-09-28T16:40:52.888Z,82
2022-09-28T16:44:18.258Z,81
2022-09-28T16:47:43.674Z,82
2022-09-28T16:51:09.069Z,83
2022-09-28T16:54:35.132Z,82
2022-09-28T16:58:00.638Z,83
2022-09-28T17:01:26.165Z,84
2022-09-28T17:04:51.625Z,83
2022-09-28T17:08:17.070Z,84
2022-09-28T17:11:42.498Z,84
2022-09-28T17:15:07.968Z,84
2022-09-28T17:18:33.484Z,84
2022-09-28T17:21:58.999Z,84
2022-09-28T17:25:24.479Z,84
2022-09-28T17:28:49.939Z,83
2022-09-28T17:32:15.390Z,84
2022-09-28T17:35:41.068Z,83
2022-09-28T17:39:06.564Z,83
2022-09-28T17:42:31.958Z,83
2022-09-28T17:45:57.449Z,83
2022-09-28T17:49:22.906Z,83
2022-09-28T17:52:48.358Z,83
2022-09-28T17:56:13.839Z,82
2022-09-28T17:59:39.261Z,82
2022-09-28T18:03:04.833Z,84
2022-09-28T18:06:30.243Z,82
2022-09-28T18:09:55.720Z,84
2022-09-28T18:13:21.263Z,84
2022-09-28T18:16:46.700Z,84
2022-09-28T18:20:12.157Z,84
2022-09-28T18:23:37.649Z,84
2022-09-28T18:27:03.069Z,84
2022-09-28T18:30:28.576Z,84
2022-09-28T18:33:54.015Z,84
2022-09-28T18:37:19.445Z,83
2022-09-28T18:40:44.930Z,83
2022-09-28T18:44:10.351Z,84
2022-09-28T18:47:35.830Z,84
2022-09-28T18:51:01.279Z,84
2022-09-28T18:54:26.757Z,84
2022-09-28T18:57:52.185Z,84
2022-09-28T19:01:33.343Z,85
2022-09-28T19:04:43.068Z,84
2022-09-28T19:08:08.558Z,84
2022-09-28T19:11:33.997Z,85
2022-09-28T19:14:59.497Z,85
2022-09-28T19:18:24.937Z,85
2022-09-28T19:21:50.510Z,85
2022-09-28T19:25:15.879Z,85
2022-09-28T19:28:41.325Z,84
2022-09-28T19:32:06.788Z,85
2022-09-28T19:35:32.233Z,84
2022-09-28T19:38:57.752Z,85
2022-09-28T19:42:23.183Z,85
2022-09-28T19:45:48.705Z,84
2022-09-28T19:49:14.068Z,85
2022-09-28T19:52:39.488Z,84
2022-09-28T19:56:05.000Z,84
2022-09-28T19:59:30.405Z,84
2022-09-28T20:02:55.924Z,85
2022-09-28T20:06:21.380Z,84
2022-09-28T20:09:46.807Z,84
2022-09-28T20:13:12.325Z,84
2022-09-28T20:16:37.762Z,84
2022-09-28T20:20:03.207Z,84
2022-09-28T20:23:28.628Z,84
2022-09-28T20:26:54.086Z,84
2022-09-28T20:30:19.597Z,84
2022-09-28T20:33:45.003Z,85
2022-09-28T20:37:10.482Z,84
2022-09-28T20:40:35.993Z,84
2022-09-28T20:44:04.973Z,84
2022-09-28T20:47:27.064Z,84
2022-09-28T20:50:52.441Z,84
2022-09-28T20:54:17.969Z,84
2022-09-28T20:57:43.337Z,85
2022-09-28T21:01:08.860Z,85
2022-09-28T21:04:34.279Z,85
2022-09-28T21:07:59.694Z,85
2022-09-28T21:11:25.177Z,85
2022-09-28T21:14:50.601Z,84
2022-09-28T21:18:16.085Z,85
2022-09-28T21:21:41.585Z,84
2022-09-28T21:25:06.968Z,84
2022-09-28T21:28:32.471Z,84
2022-09-28T21:31:57.952Z,85
2022-09-28T21:35:23.445Z,85
2022-09-28T21:38:48.878Z,86
2022-09-28T21:42:14.319Z,86
2022-09-28T21:45:39.817Z,86
2022-09-28T21:49:05.263Z,86
2022-09-28T21:52:30.752Z,86
2022-09-28T21:55:56.225Z,86
2022-09-28T21:59:21.699Z,86
2022-09-28T22:02:47.155Z,86
2022-09-28T22:06:12.540Z,86
2022-09-28T22:09:37.989Z,86
2022-09-28T22:13:03.434Z,85
2022-09-28T22:16:28.874Z,86
2022-09-28T22:19:54.309Z,85
2022-09-28T22:23:19.775Z,85
2022-09-28T22:26:45.279Z,85
2022-09-28T22:30:10.824Z,85
2022-09-28T22:33:36.259Z,85
2022-09-28T22:37:01.758Z,86
2022-09-28T22:40:27.255Z,86
2022-09-28T22:43:52.700Z,86
2022-09-28T22:47:18.212Z,86
2022-09-28T22:50:43.684Z,85
2022-09-28T22:54:09.117Z,85
2022-09-28T22:57:34.569Z,85
2022-09-28T23:01:00.041Z,86
2022-09-28T23:04:25.509Z,87
2022-09-28T23:07:50.955Z,87
2022-09-28T23:11:16.392Z,87
2022-09-28T23:14:41.852Z,87
2022-09-28T23:18:07.332Z,87
2022-09-28T23:21:32.754Z,87
2022-09-28T23:24:58.184Z,86
2022-09-28T23:28:23.643Z,86
2022-09-28T23:31:49.112Z,86
2022-09-28T23:35:14.547Z,87
2022-09-28T23:38:40.020Z,87
2022-09-28T23:42:05.409Z,87
2022-09-28T23:45:30.863Z,87
2022-09-28T23:48:56.300Z,87
2022-09-28T23:52:21.759Z,87
2022-09-28T23:55:47.263Z,87
2022-09-28T23:59:12.703Z,87
